sensor_id;sensor_type;location;lat;lon;timestamp;P1;durP1;ratioP1;P2;durP2;ratioP2
78858;SDS011;68210;52.032;4.634;2023-07-29T00:01:23;3.13;;;1.30;;
78858;SDS011;68210;52.032;4.634;2023-07-29T00:03:23;2.63;;;1.10;;
78858;SDS011;68210;52.032;4.634;2023-07-29T00:05:24;4.80;;;1.10;;
78858;SDS011;68210;52.032;4.634;2023-07-29T00:07:24;4.95;;;1.33;;
78858;SDS011;68210;52.032;4.634;2023-07-29T00:09:25;1.55;;;0.90;;
78858;SDS011;68210;52.032;4.634;2023-07-29T00:11:25;1.98;;;1.00;;
78858;SDS011;68210;52.032;4.634;2023-07-29T00:13:25;1.77;;;1.10;;
78858;SDS011;68210;52.032;4.634;2023-07-29T00:15:26;2.05;;;1.10;;
78858;SDS011;68210;52.032;4.634;2023-07-29T00:17:26;2.95;;;1.15;;
78858;SDS011;68210;52.032;4.634;2023-07-29T00:19:26;4.72;;;1.35;;
78858;SDS011;68210;52.032;4.634;2023-07-29T00:21:28;3.53;;;1.60;;
78858;SDS011;68210;52.032;4.634;2023-07-29T00:23:28;3.35;;;1.40;;
78858;SDS011;68210;52.032;4.634;2023-07-29T00:25:29;1.92;;;1.00;;
78858;SDS011;68210;52.032;4.634;2023-07-29T00:27:29;2.22;;;0.98;;
78858;SDS011;68210;52.032;4.634;2023-07-29T00:29:29;7.25;;;1.30;;
78858;SDS011;68210;52.032;4.634;2023-07-29T00:31:30;3.47;;;1.10;;
78858;SDS011;68210;52.032;4.634;2023-07-29T00:33:30;6.57;;;1.17;;
78858;SDS011;68210;52.032;4.634;2023-07-29T00:35:32;3.38;;;1.27;;
78858;SDS011;68210;52.032;4.634;2023-07-29T00:37:32;3.25;;;1.20;;
78858;SDS011;68210;52.032;4.634;2023-07-29T00:39:33;3.53;;;1.20;;
78858;SDS011;68210;52.032;4.634;2023-07-29T00:41:33;3.25;;;1.23;;
78858;SDS011;68210;52.032;4.634;2023-07-29T00:43:34;4.78;;;1.67;;
78858;SDS011;68210;52.032;4.634;2023-07-29T00:45:34;4.18;;;1.50;;
78858;SDS011;68210;52.032;4.634;2023-07-29T00:47:35;2.78;;;1.30;;
78858;SDS011;68210;52.032;4.634;2023-07-29T00:49:35;3.55;;;1.10;;
78858;SDS011;68210;52.032;4.634;2023-07-29T00:51:35;5.13;;;1.38;;
78858;SDS011;68210;52.032;4.634;2023-07-29T00:53:36;3.20;;;1.20;;
78858;SDS011;68210;52.032;4.634;2023-07-29T00:55:36;4.95;;;1.52;;
78858;SDS011;68210;52.032;4.634;2023-07-29T00:57:37;4.88;;;1.60;;
78858;SDS011;68210;52.032;4.634;2023-07-29T00:59:37;6.15;;;1.85;;
78858;SDS011;68210;52.032;4.634;2023-07-29T01:01:38;4.63;;;1.67;;
78858;SDS011;68210;52.032;4.634;2023-07-29T01:03:39;2.97;;;1.05;;
78858;SDS011;68210;52.032;4.634;2023-07-29T01:08:18;3.17;;;1.55;;
78858;SDS011;68210;52.032;4.634;2023-07-29T01:10:51;3.88;;;1.55;;
78858;SDS011;68210;52.032;4.634;2023-07-29T01:15:43;4.13;;;1.67;;
78858;SDS011;68210;52.032;4.634;2023-07-29T01:17:52;7.75;;;1.90;;
78858;SDS011;68210;52.032;4.634;2023-07-29T01:19:59;3.03;;;1.40;;
78858;SDS011;68210;52.032;4.634;2023-07-29T01:22:05;4.32;;;1.88;;
78858;SDS011;68210;52.032;4.634;2023-07-29T01:24:07;5.38;;;1.60;;
78858;SDS011;68210;52.032;4.634;2023-07-29T01:26:08;3.45;;;1.67;;
78858;SDS011;68210;52.032;4.634;2023-07-29T01:28:08;2.97;;;1.45;;
78858;SDS011;68210;52.032;4.634;2023-07-29T01:30:09;3.15;;;1.70;;
78858;SDS011;68210;52.032;4.634;2023-07-29T01:32:10;2.65;;;1.27;;
78858;SDS011;68210;52.032;4.634;2023-07-29T01:34:22;3.50;;;1.40;;
78858;SDS011;68210;52.032;4.634;2023-07-29T01:36:29;3.97;;;1.60;;
78858;SDS011;68210;52.032;4.634;2023-07-29T01:38:33;3.80;;;1.35;;
78858;SDS011;68210;52.032;4.634;2023-07-29T01:42:35;3.85;;;1.52;;
78858;SDS011;68210;52.032;4.634;2023-07-29T01:44:36;3.30;;;1.40;;
78858;SDS011;68210;52.032;4.634;2023-07-29T01:46:37;4.07;;;1.52;;
78858;SDS011;68210;52.032;4.634;2023-07-29T01:48:37;3.20;;;1.40;;
78858;SDS011;68210;52.032;4.634;2023-07-29T01:50:38;4.35;;;1.85;;
78858;SDS011;68210;52.032;4.634;2023-07-29T01:52:38;3.47;;;1.15;;
78858;SDS011;68210;52.032;4.634;2023-07-29T01:54:39;3.50;;;1.40;;
78858;SDS011;68210;52.032;4.634;2023-07-29T01:56:39;4.75;;;1.40;;
78858;SDS011;68210;52.032;4.634;2023-07-29T01:58:39;3.58;;;1.17;;
78858;SDS011;68210;52.032;4.634;2023-07-29T02:00:40;3.30;;;1.40;;
78858;SDS011;68210;52.032;4.634;2023-07-29T02:02:40;3.42;;;1.40;;
78858;SDS011;68210;52.032;4.634;2023-07-29T02:04:41;2.38;;;1.83;;
78858;SDS011;68210;52.032;4.634;2023-07-29T02:06:41;4.35;;;1.15;;
78858;SDS011;68210;52.032;4.634;2023-07-29T02:08:42;2.97;;;1.30;;
78858;SDS011;68210;52.032;4.634;2023-07-29T02:10:42;2.60;;;1.60;;
78858;SDS011;68210;52.032;4.634;2023-07-29T02:14:45;5.37;;;2.20;;
78858;SDS011;68210;52.032;4.634;2023-07-29T02:16:45;7.40;;;1.60;;
78858;SDS011;68210;52.032;4.634;2023-07-29T02:18:46;2.67;;;1.23;;
78858;SDS011;68210;52.032;4.634;2023-07-29T02:20:46;5.00;;;1.85;;
78858;SDS011;68210;52.032;4.634;2023-07-29T02:22:49;4.32;;;1.65;;
78858;SDS011;68210;52.032;4.634;2023-07-29T02:24:49;2.97;;;1.58;;
78858;SDS011;68210;52.032;4.634;2023-07-29T02:26:50;3.08;;;1.60;;
78858;SDS011;68210;52.032;4.634;2023-07-29T02:28:50;1.95;;;1.30;;
78858;SDS011;68210;52.032;4.634;2023-07-29T02:31:08;2.70;;;1.48;;
78858;SDS011;68210;52.032;4.634;2023-07-29T02:33:10;2.75;;;1.40;;
78858;SDS011;68210;52.032;4.634;2023-07-29T02:35:11;4.65;;;1.45;;
78858;SDS011;68210;52.032;4.634;2023-07-29T02:37:12;4.75;;;1.80;;
78858;SDS011;68210;52.032;4.634;2023-07-29T02:39:12;3.17;;;1.42;;
78858;SDS011;68210;52.032;4.634;2023-07-29T02:41:13;3.53;;;1.33;;
78858;SDS011;68210;52.032;4.634;2023-07-29T02:43:14;4.85;;;1.42;;
78858;SDS011;68210;52.032;4.634;2023-07-29T02:45:15;3.80;;;1.70;;
78858;SDS011;68210;52.032;4.634;2023-07-29T02:47:15;2.58;;;1.25;;
78858;SDS011;68210;52.032;4.634;2023-07-29T02:49:16;2.88;;;1.55;;
78858;SDS011;68210;52.032;4.634;2023-07-29T02:51:16;3.88;;;1.52;;
78858;SDS011;68210;52.032;4.634;2023-07-29T02:53:17;4.32;;;2.08;;
78858;SDS011;68210;52.032;4.634;2023-07-29T02:55:17;4.70;;;1.85;;
78858;SDS011;68210;52.032;4.634;2023-07-29T02:57:17;2.92;;;1.52;;
78858;SDS011;68210;52.032;4.634;2023-07-29T02:59:18;1.83;;;1.15;;
78858;SDS011;68210;52.032;4.634;2023-07-29T03:01:18;3.42;;;1.50;;
78858;SDS011;68210;52.032;4.634;2023-07-29T03:03:19;2.67;;;1.40;;
78858;SDS011;68210;52.032;4.634;2023-07-29T03:05:19;2.45;;;1.15;;
78858;SDS011;68210;52.032;4.634;2023-07-29T03:07:19;4.35;;;1.92;;
78858;SDS011;68210;52.032;4.634;2023-07-29T03:09:20;3.47;;;1.52;;
78858;SDS011;68210;52.032;4.634;2023-07-29T03:11:20;3.38;;;1.50;;
78858;SDS011;68210;52.032;4.634;2023-07-29T03:13:21;2.55;;;1.40;;
78858;SDS011;68210;52.032;4.634;2023-07-29T03:15:24;2.78;;;1.33;;
78858;SDS011;68210;52.032;4.634;2023-07-29T03:17:26;4.07;;;1.42;;
78858;SDS011;68210;52.032;4.634;2023-07-29T03:19:27;2.00;;;1.30;;
78858;SDS011;68210;52.032;4.634;2023-07-29T03:21:27;3.83;;;1.85;;
78858;SDS011;68210;52.032;4.634;2023-07-29T03:23:28;2.70;;;1.65;;
78858;SDS011;68210;52.032;4.634;2023-07-29T03:25:29;3.17;;;1.50;;
78858;SDS011;68210;52.032;4.634;2023-07-29T03:27:29;4.55;;;1.70;;
78858;SDS011;68210;52.032;4.634;2023-07-29T03:29:30;4.30;;;1.90;;
78858;SDS011;68210;52.032;4.634;2023-07-29T03:31:30;4.38;;;1.70;;
78858;SDS011;68210;52.032;4.634;2023-07-29T03:33:31;4.57;;;1.50;;
78858;SDS011;68210;52.032;4.634;2023-07-29T03:35:31;5.38;;;1.90;;
78858;SDS011;68210;52.032;4.634;2023-07-29T03:37:32;2.72;;;1.67;;
78858;SDS011;68210;52.032;4.634;2023-07-29T03:39:32;6.35;;;1.90;;
78858;SDS011;68210;52.032;4.634;2023-07-29T03:41:32;3.55;;;1.73;;
78858;SDS011;68210;52.032;4.634;2023-07-29T03:43:33;5.07;;;1.80;;
78858;SDS011;68210;52.032;4.634;2023-07-29T03:45:34;3.47;;;1.70;;
78858;SDS011;68210;52.032;4.634;2023-07-29T03:47:35;6.00;;;1.90;;
78858;SDS011;68210;52.032;4.634;2023-07-29T03:49:35;4.22;;;1.88;;
78858;SDS011;68210;52.032;4.634;2023-07-29T03:51:36;3.58;;;1.60;;
78858;SDS011;68210;52.032;4.634;2023-07-29T03:53:36;3.10;;;1.35;;
78858;SDS011;68210;52.032;4.634;2023-07-29T03:55:36;4.13;;;1.70;;
78858;SDS011;68210;52.032;4.634;2023-07-29T03:57:37;3.13;;;1.70;;
78858;SDS011;68210;52.032;4.634;2023-07-29T03:59:37;5.78;;;1.85;;
78858;SDS011;68210;52.032;4.634;2023-07-29T04:01:38;3.33;;;1.90;;
78858;SDS011;68210;52.032;4.634;2023-07-29T04:03:38;4.10;;;1.40;;
78858;SDS011;68210;52.032;4.634;2023-07-29T04:05:39;4.45;;;1.60;;
78858;SDS011;68210;52.032;4.634;2023-07-29T04:07:40;4.72;;;1.63;;
78858;SDS011;68210;52.032;4.634;2023-07-29T04:09:40;4.75;;;2.08;;
78858;SDS011;68210;52.032;4.634;2023-07-29T04:11:43;3.85;;;1.58;;
78858;SDS011;68210;52.032;4.634;2023-07-29T04:13:43;3.40;;;1.48;;
78858;SDS011;68210;52.032;4.634;2023-07-29T04:15:44;3.65;;;1.92;;
78858;SDS011;68210;52.032;4.634;2023-07-29T04:17:45;4.40;;;2.00;;
78858;SDS011;68210;52.032;4.634;2023-07-29T04:19:45;3.92;;;1.30;;
78858;SDS011;68210;52.032;4.634;2023-07-29T04:21:45;5.72;;;2.00;;
78858;SDS011;68210;52.032;4.634;2023-07-29T04:23:46;5.13;;;1.88;;
78858;SDS011;68210;52.032;4.634;2023-07-29T04:25:46;4.03;;;1.95;;
78858;SDS011;68210;52.032;4.634;2023-07-29T04:27:47;3.83;;;2.00;;
78858;SDS011;68210;52.032;4.634;2023-07-29T04:29:47;4.07;;;1.92;;
78858;SDS011;68210;52.032;4.634;2023-07-29T04:31:47;7.10;;;1.83;;
78858;SDS011;68210;52.032;4.634;2023-07-29T04:33:48;5.05;;;1.73;;
78858;SDS011;68210;52.032;4.634;2023-07-29T04:35:48;3.97;;;1.90;;
78858;SDS011;68210;52.032;4.634;2023-07-29T04:37:48;4.60;;;2.03;;
78858;SDS011;68210;52.032;4.634;2023-07-29T04:39:49;4.57;;;2.10;;
78858;SDS011;68210;52.032;4.634;2023-07-29T04:41:49;5.32;;;2.17;;
78858;SDS011;68210;52.032;4.634;2023-07-29T04:43:50;6.03;;;2.33;;
78858;SDS011;68210;52.032;4.634;2023-07-29T04:45:50;5.63;;;2.03;;
78858;SDS011;68210;52.032;4.634;2023-07-29T04:47:50;4.53;;;1.98;;
78858;SDS011;68210;52.032;4.634;2023-07-29T04:49:51;5.57;;;2.17;;
78858;SDS011;68210;52.032;4.634;2023-07-29T04:51:51;5.70;;;2.42;;
78858;SDS011;68210;52.032;4.634;2023-07-29T04:53:51;2.90;;;1.90;;
78858;SDS011;68210;52.032;4.634;2023-07-29T04:55:52;4.22;;;2.17;;
78858;SDS011;68210;52.032;4.634;2023-07-29T04:57:52;4.25;;;2.22;;
78858;SDS011;68210;52.032;4.634;2023-07-29T04:59:52;5.25;;;2.22;;
78858;SDS011;68210;52.032;4.634;2023-07-29T05:01:53;5.75;;;2.65;;
78858;SDS011;68210;52.032;4.634;2023-07-29T05:03:53;6.75;;;2.45;;
78858;SDS011;68210;52.032;4.634;2023-07-29T05:05:53;3.47;;;2.22;;
78858;SDS011;68210;52.032;4.634;2023-07-29T05:07:55;6.82;;;2.35;;
78858;SDS011;68210;52.032;4.634;2023-07-29T05:09:55;7.30;;;2.58;;
78858;SDS011;68210;52.032;4.634;2023-07-29T05:11:56;5.85;;;2.75;;
78858;SDS011;68210;52.032;4.634;2023-07-29T05:13:56;3.50;;;2.17;;
78858;SDS011;68210;52.032;4.634;2023-07-29T05:15:56;4.50;;;2.60;;
78858;SDS011;68210;52.032;4.634;2023-07-29T05:17:57;8.43;;;2.70;;
78858;SDS011;68210;52.032;4.634;2023-07-29T05:19:57;5.47;;;1.65;;
78858;SDS011;68210;52.032;4.634;2023-07-29T05:21:58;3.42;;;2.10;;
78858;SDS011;68210;52.032;4.634;2023-07-29T05:23:58;11.50;;;2.88;;
78858;SDS011;68210;52.032;4.634;2023-07-29T05:25:58;4.70;;;2.08;;
78858;SDS011;68210;52.032;4.634;2023-07-29T05:27:59;5.72;;;2.53;;
78858;SDS011;68210;52.032;4.634;2023-07-29T05:29:59;8.25;;;2.72;;
78858;SDS011;68210;52.032;4.634;2023-07-29T05:31:59;7.80;;;2.60;;
78858;SDS011;68210;52.032;4.634;2023-07-29T05:34:00;5.50;;;2.47;;
78858;SDS011;68210;52.032;4.634;2023-07-29T05:36:00;5.50;;;2.80;;
78858;SDS011;68210;52.032;4.634;2023-07-29T05:38:00;5.35;;;2.65;;
78858;SDS011;68210;52.032;4.634;2023-07-29T05:40:01;4.60;;;2.50;;
78858;SDS011;68210;52.032;4.634;2023-07-29T05:42:01;4.88;;;2.53;;
78858;SDS011;68210;52.032;4.634;2023-07-29T05:44:03;5.93;;;2.63;;
78858;SDS011;68210;52.032;4.634;2023-07-29T05:46:03;3.83;;;1.83;;
78858;SDS011;68210;52.032;4.634;2023-07-29T05:48:04;7.05;;;2.50;;
78858;SDS011;68210;52.032;4.634;2023-07-29T05:50:04;6.43;;;2.30;;
78858;SDS011;68210;52.032;4.634;2023-07-29T05:52:05;7.35;;;2.90;;
78858;SDS011;68210;52.032;4.634;2023-07-29T05:54:06;5.40;;;2.58;;
78858;SDS011;68210;52.032;4.634;2023-07-29T05:56:06;7.78;;;2.50;;
78858;SDS011;68210;52.032;4.634;2023-07-29T05:58:07;5.43;;;2.38;;
78858;SDS011;68210;52.032;4.634;2023-07-29T06:00:07;8.55;;;2.55;;
78858;SDS011;68210;52.032;4.634;2023-07-29T06:02:08;6.35;;;2.65;;
78858;SDS011;68210;52.032;4.634;2023-07-29T06:04:08;6.93;;;2.90;;
78858;SDS011;68210;52.032;4.634;2023-07-29T06:06:09;8.18;;;3.33;;
78858;SDS011;68210;52.032;4.634;2023-07-29T06:08:09;5.05;;;2.60;;
78858;SDS011;68210;52.032;4.634;2023-07-29T06:10:13;6.00;;;2.75;;
78858;SDS011;68210;52.032;4.634;2023-07-29T06:12:17;6.30;;;3.00;;
78858;SDS011;68210;52.032;4.634;2023-07-29T06:14:17;5.15;;;2.35;;
78858;SDS011;68210;52.032;4.634;2023-07-29T06:16:18;7.93;;;2.70;;
78858;SDS011;68210;52.032;4.634;2023-07-29T06:18:18;6.55;;;2.47;;
78858;SDS011;68210;52.032;4.634;2023-07-29T06:20:18;6.70;;;2.72;;
78858;SDS011;68210;52.032;4.634;2023-07-29T06:22:19;7.10;;;2.63;;
78858;SDS011;68210;52.032;4.634;2023-07-29T06:24:19;7.07;;;2.78;;
78858;SDS011;68210;52.032;4.634;2023-07-29T06:26:20;5.28;;;2.00;;
78858;SDS011;68210;52.032;4.634;2023-07-29T06:28:20;8.32;;;2.90;;
78858;SDS011;68210;52.032;4.634;2023-07-29T06:30:20;5.03;;;2.63;;
78858;SDS011;68210;52.032;4.634;2023-07-29T06:32:21;4.18;;;2.40;;
78858;SDS011;68210;52.032;4.634;2023-07-29T06:34:21;5.25;;;2.40;;
78858;SDS011;68210;52.032;4.634;2023-07-29T06:36:22;5.22;;;2.70;;
78858;SDS011;68210;52.032;4.634;2023-07-29T06:38:22;3.63;;;2.20;;
78858;SDS011;68210;52.032;4.634;2023-07-29T06:40:23;7.25;;;2.80;;
78858;SDS011;68210;52.032;4.634;2023-07-29T06:42:23;6.35;;;2.67;;
78858;SDS011;68210;52.032;4.634;2023-07-29T06:44:23;3.70;;;2.08;;
78858;SDS011;68210;52.032;4.634;2023-07-29T06:46:24;5.13;;;2.35;;
78858;SDS011;68210;52.032;4.634;2023-07-29T06:48:25;7.35;;;2.28;;
78858;SDS011;68210;52.032;4.634;2023-07-29T06:50:25;6.68;;;1.90;;
78858;SDS011;68210;52.032;4.634;2023-07-29T06:52:25;3.50;;;1.70;;
78858;SDS011;68210;52.032;4.634;2023-07-29T06:54:26;5.65;;;1.67;;
78858;SDS011;68210;52.032;4.634;2023-07-29T06:56:26;4.78;;;2.13;;
78858;SDS011;68210;52.032;4.634;2023-07-29T06:58:27;5.18;;;1.90;;
78858;SDS011;68210;52.032;4.634;2023-07-29T07:00:27;3.75;;;2.10;;
78858;SDS011;68210;52.032;4.634;2023-07-29T07:02:28;6.22;;;2.10;;
78858;SDS011;68210;52.032;4.634;2023-07-29T07:04:28;4.60;;;1.88;;
78858;SDS011;68210;52.032;4.634;2023-07-29T07:06:28;4.10;;;1.92;;
78858;SDS011;68210;52.032;4.634;2023-07-29T07:08:29;4.05;;;1.67;;
78858;SDS011;68210;52.032;4.634;2023-07-29T07:10:31;4.10;;;1.50;;
78858;SDS011;68210;52.032;4.634;2023-07-29T07:12:33;5.40;;;1.75;;
78858;SDS011;68210;52.032;4.634;2023-07-29T07:14:34;3.15;;;1.77;;
78858;SDS011;68210;52.032;4.634;2023-07-29T07:16:34;5.80;;;2.00;;
78858;SDS011;68210;52.032;4.634;2023-07-29T07:18:36;5.00;;;2.05;;
78858;SDS011;68210;52.032;4.634;2023-07-29T07:20:37;3.53;;;2.00;;
78858;SDS011;68210;52.032;4.634;2023-07-29T07:22:37;6.47;;;1.92;;
78858;SDS011;68210;52.032;4.634;2023-07-29T07:24:39;2.97;;;1.80;;
78858;SDS011;68210;52.032;4.634;2023-07-29T07:26:39;4.00;;;1.42;;
78858;SDS011;68210;52.032;4.634;2023-07-29T07:28:39;4.80;;;1.75;;
78858;SDS011;68210;52.032;4.634;2023-07-29T07:30:40;4.97;;;1.75;;
78858;SDS011;68210;52.032;4.634;2023-07-29T07:32:44;5.18;;;1.55;;
78858;SDS011;68210;52.032;4.634;2023-07-29T07:34:45;4.30;;;1.45;;
78858;SDS011;68210;52.032;4.634;2023-07-29T07:36:45;5.38;;;1.48;;
78858;SDS011;68210;52.032;4.634;2023-07-29T07:38:46;4.13;;;1.30;;
78858;SDS011;68210;52.032;4.634;2023-07-29T07:40:53;6.57;;;1.17;;
78858;SDS011;68210;52.032;4.634;2023-07-29T07:42:56;7.40;;;1.40;;
78858;SDS011;68210;52.032;4.634;2023-07-29T07:44:57;3.97;;;1.80;;
78858;SDS011;68210;52.032;4.634;2023-07-29T07:46:57;3.30;;;1.10;;
78858;SDS011;68210;52.032;4.634;2023-07-29T07:48:58;4.03;;;1.15;;
78858;SDS011;68210;52.032;4.634;2023-07-29T07:50:58;3.72;;;1.48;;
78858;SDS011;68210;52.032;4.634;2023-07-29T07:52:58;3.75;;;1.55;;
78858;SDS011;68210;52.032;4.634;2023-07-29T07:54:59;4.15;;;1.63;;
78858;SDS011;68210;52.032;4.634;2023-07-29T07:56:59;4.30;;;1.20;;
78858;SDS011;68210;52.032;4.634;2023-07-29T07:59:00;5.43;;;1.35;;
78858;SDS011;68210;52.032;4.634;2023-07-29T08:01:03;7.68;;;1.40;;
78858;SDS011;68210;52.032;4.634;2023-07-29T08:03:04;6.53;;;1.67;;
78858;SDS011;68210;52.032;4.634;2023-07-29T08:05:05;2.88;;;1.10;;
78858;SDS011;68210;52.032;4.634;2023-07-29T08:07:05;5.28;;;1.15;;
78858;SDS011;68210;52.032;4.634;2023-07-29T08:09:06;5.18;;;1.27;;
78858;SDS011;68210;52.032;4.634;2023-07-29T08:11:06;3.50;;;1.42;;
78858;SDS011;68210;52.032;4.634;2023-07-29T08:13:06;4.13;;;1.60;;
78858;SDS011;68210;52.032;4.634;2023-07-29T08:15:07;4.60;;;1.30;;
78858;SDS011;68210;52.032;4.634;2023-07-29T08:17:07;4.30;;;1.23;;
78858;SDS011;68210;52.032;4.634;2023-07-29T08:19:08;3.83;;;1.58;;
78858;SDS011;68210;52.032;4.634;2023-07-29T08:21:09;5.40;;;1.23;;
78858;SDS011;68210;52.032;4.634;2023-07-29T08:23:10;6.07;;;1.38;;
78858;SDS011;68210;52.032;4.634;2023-07-29T08:25:10;3.78;;;1.40;;
78858;SDS011;68210;52.032;4.634;2023-07-29T08:27:10;3.83;;;1.40;;
78858;SDS011;68210;52.032;4.634;2023-07-29T08:29:11;2.40;;;1.30;;
78858;SDS011;68210;52.032;4.634;2023-07-29T08:31:12;4.38;;;1.75;;
78858;SDS011;68210;52.032;4.634;2023-07-29T08:33:12;4.43;;;1.13;;
78858;SDS011;68210;52.032;4.634;2023-07-29T08:35:12;3.60;;;1.35;;
78858;SDS011;68210;52.032;4.634;2023-07-29T08:37:13;2.92;;;1.40;;
78858;SDS011;68210;52.032;4.634;2023-07-29T08:39:14;2.78;;;1.13;;
78858;SDS011;68210;52.032;4.634;2023-07-29T08:41:16;5.85;;;1.73;;
78858;SDS011;68210;52.032;4.634;2023-07-29T08:43:22;4.43;;;1.40;;
78858;SDS011;68210;52.032;4.634;2023-07-29T08:45:35;5.82;;;1.42;;
78858;SDS011;68210;52.032;4.634;2023-07-29T08:47:37;3.25;;;1.50;;
78858;SDS011;68210;52.032;4.634;2023-07-29T08:49:37;3.25;;;1.33;;
78858;SDS011;68210;52.032;4.634;2023-07-29T08:51:38;4.25;;;1.50;;
78858;SDS011;68210;52.032;4.634;2023-07-29T08:53:41;4.00;;;1.52;;
78858;SDS011;68210;52.032;4.634;2023-07-29T08:55:42;5.75;;;1.60;;
78858;SDS011;68210;52.032;4.634;2023-07-29T08:57:43;3.65;;;1.42;;
78858;SDS011;68210;52.032;4.634;2023-07-29T08:59:43;4.45;;;1.58;;
78858;SDS011;68210;52.032;4.634;2023-07-29T09:01:44;4.60;;;1.90;;
78858;SDS011;68210;52.032;4.634;2023-07-29T09:03:45;4.07;;;1.42;;
78858;SDS011;68210;52.032;4.634;2023-07-29T09:05:45;3.53;;;1.70;;
78858;SDS011;68210;52.032;4.634;2023-07-29T09:07:46;4.43;;;1.75;;
78858;SDS011;68210;52.032;4.634;2023-07-29T09:09:48;4.32;;;1.60;;
78858;SDS011;68210;52.032;4.634;2023-07-29T09:11:48;5.28;;;2.00;;
78858;SDS011;68210;52.032;4.634;2023-07-29T09:13:49;3.67;;;2.10;;
78858;SDS011;68210;52.032;4.634;2023-07-29T09:15:49;4.32;;;2.15;;
78858;SDS011;68210;52.032;4.634;2023-07-29T09:17:55;4.28;;;1.98;;
78858;SDS011;68210;52.032;4.634;2023-07-29T09:19:57;4.25;;;1.73;;
78858;SDS011;68210;52.032;4.634;2023-07-29T09:21:57;3.83;;;1.90;;
78858;SDS011;68210;52.032;4.634;2023-07-29T09:23:58;5.00;;;2.10;;
78858;SDS011;68210;52.032;4.634;2023-07-29T09:26:03;5.32;;;1.83;;
78858;SDS011;68210;52.032;4.634;2023-07-29T09:28:10;5.38;;;2.05;;
78858;SDS011;68210;52.032;4.634;2023-07-29T09:30:15;5.38;;;2.35;;
78858;SDS011;68210;52.032;4.634;2023-07-29T09:32:23;6.47;;;2.28;;
78858;SDS011;68210;52.032;4.634;2023-07-29T09:34:25;3.55;;;2.20;;
78858;SDS011;68210;52.032;4.634;2023-07-29T09:36:26;4.35;;;2.40;;
78858;SDS011;68210;52.032;4.634;2023-07-29T09:38:27;5.95;;;2.60;;
78858;SDS011;68210;52.032;4.634;2023-07-29T09:40:33;3.72;;;1.88;;
78858;SDS011;68210;52.032;4.634;2023-07-29T09:42:38;7.38;;;2.95;;
78858;SDS011;68210;52.032;4.634;2023-07-29T09:44:38;2.88;;;1.70;;
78858;SDS011;68210;52.032;4.634;2023-07-29T09:46:38;2.85;;;2.03;;
78858;SDS011;68210;52.032;4.634;2023-07-29T09:48:39;4.63;;;2.78;;
78858;SDS011;68210;52.032;4.634;2023-07-29T09:52:42;3.50;;;1.87;;
78858;SDS011;68210;52.032;4.634;2023-07-29T09:54:43;3.83;;;2.00;;
78858;SDS011;68210;52.032;4.634;2023-07-29T09:56:44;3.78;;;1.63;;
78858;SDS011;68210;52.032;4.634;2023-07-29T09:58:45;2.40;;;1.55;;
78858;SDS011;68210;52.032;4.634;2023-07-29T10:00:48;3.72;;;2.30;;
78858;SDS011;68210;52.032;4.634;2023-07-29T10:02:48;3.90;;;1.30;;
78858;SDS011;68210;52.032;4.634;2023-07-29T10:04:50;3.42;;;1.50;;
78858;SDS011;68210;52.032;4.634;2023-07-29T10:08:55;4.53;;;1.60;;
78858;SDS011;68210;52.032;4.634;2023-07-29T10:10:56;2.78;;;1.60;;
78858;SDS011;68210;52.032;4.634;2023-07-29T10:13:00;3.28;;;1.40;;
78858;SDS011;68210;52.032;4.634;2023-07-29T10:15:03;2.97;;;1.45;;
78858;SDS011;68210;52.032;4.634;2023-07-29T10:17:05;4.63;;;1.23;;
78858;SDS011;68210;52.032;4.634;2023-07-29T10:19:06;5.50;;;1.38;;
78858;SDS011;68210;52.032;4.634;2023-07-29T10:21:07;2.78;;;1.50;;
78858;SDS011;68210;52.032;4.634;2023-07-29T10:23:10;4.72;;;1.40;;
78858;SDS011;68210;52.032;4.634;2023-07-29T10:25:18;4.57;;;1.50;;
78858;SDS011;68210;52.032;4.634;2023-07-29T10:27:21;3.78;;;1.83;;
78858;SDS011;68210;52.032;4.634;2023-07-29T10:29:25;4.55;;;1.70;;
78858;SDS011;68210;52.032;4.634;2023-07-29T10:31:31;3.80;;;1.50;;
78858;SDS011;68210;52.032;4.634;2023-07-29T10:33:32;1.48;;;1.13;;
78858;SDS011;68210;52.032;4.634;2023-07-29T10:35:34;1.85;;;1.10;;
78858;SDS011;68210;52.032;4.634;2023-07-29T10:37:36;2.15;;;1.20;;
78858;SDS011;68210;52.032;4.634;2023-07-29T10:39:40;2.83;;;0.90;;
78858;SDS011;68210;52.032;4.634;2023-07-29T10:42:24;2.10;;;1.33;;
78858;SDS011;68210;52.032;4.634;2023-07-29T10:46:40;4.43;;;1.50;;
78858;SDS011;68210;52.032;4.634;2023-07-29T10:48:40;3.47;;;0.88;;
78858;SDS011;68210;52.032;4.634;2023-07-29T10:50:42;2.47;;;1.40;;
78858;SDS011;68210;52.032;4.634;2023-07-29T10:52:42;1.90;;;0.95;;
78858;SDS011;68210;52.032;4.634;2023-07-29T10:54:43;2.80;;;1.40;;
78858;SDS011;68210;52.032;4.634;2023-07-29T10:56:48;1.73;;;0.85;;
78858;SDS011;68210;52.032;4.634;2023-07-29T10:58:49;3.78;;;1.05;;
78858;SDS011;68210;52.032;4.634;2023-07-29T11:00:49;1.85;;;0.63;;
78858;SDS011;68210;52.032;4.634;2023-07-29T11:02:58;1.20;;;0.68;;
78858;SDS011;68210;52.032;4.634;2023-07-29T11:05:15;3.38;;;1.00;;
78858;SDS011;68210;52.032;4.634;2023-07-29T11:11:51;1.95;;;0.88;;
78858;SDS011;68210;52.032;4.634;2023-07-29T11:13:52;2.42;;;1.00;;
78858;SDS011;68210;52.032;4.634;2023-07-29T11:15:53;1.83;;;0.90;;
78858;SDS011;68210;52.032;4.634;2023-07-29T11:17:59;2.85;;;0.80;;
78858;SDS011;68210;52.032;4.634;2023-07-29T11:20:01;2.30;;;1.38;;
78858;SDS011;68210;52.032;4.634;2023-07-29T11:22:03;2.42;;;1.38;;
78858;SDS011;68210;52.032;4.634;2023-07-29T11:24:03;2.10;;;1.48;;
78858;SDS011;68210;52.032;4.634;2023-07-29T11:26:04;4.45;;;1.50;;
78858;SDS011;68210;52.032;4.634;2023-07-29T11:28:04;3.22;;;1.60;;
78858;SDS011;68210;52.032;4.634;2023-07-29T11:30:09;3.97;;;1.60;;
78858;SDS011;68210;52.032;4.634;2023-07-29T11:32:11;3.17;;;1.65;;
78858;SDS011;68210;52.032;4.634;2023-07-29T11:34:12;5.07;;;2.00;;
78858;SDS011;68210;52.032;4.634;2023-07-29T11:36:17;3.08;;;1.60;;
78858;SDS011;68210;52.032;4.634;2023-07-29T11:38:19;1.55;;;1.15;;
78858;SDS011;68210;52.032;4.634;2023-07-29T11:40:22;3.53;;;1.55;;
78858;SDS011;68210;52.032;4.634;2023-07-29T11:42:23;3.03;;;2.03;;
78858;SDS011;68210;52.032;4.634;2023-07-29T11:44:27;2.83;;;1.70;;
78858;SDS011;68210;52.032;4.634;2023-07-29T11:46:28;3.08;;;1.70;;
78858;SDS011;68210;52.032;4.634;2023-07-29T11:48:32;2.78;;;1.95;;
78858;SDS011;68210;52.032;4.634;2023-07-29T11:50:33;1.85;;;1.35;;
78858;SDS011;68210;52.032;4.634;2023-07-29T11:52:35;2.97;;;1.90;;
78858;SDS011;68210;52.032;4.634;2023-07-29T11:54:37;4.40;;;2.30;;
78858;SDS011;68210;52.032;4.634;2023-07-29T11:56:38;2.30;;;1.75;;
78858;SDS011;68210;52.032;4.634;2023-07-29T11:58:39;4.28;;;1.60;;
78858;SDS011;68210;52.032;4.634;2023-07-29T12:00:39;2.95;;;1.90;;
78858;SDS011;68210;52.032;4.634;2023-07-29T12:02:40;2.97;;;1.80;;
78858;SDS011;68210;52.032;4.634;2023-07-29T12:04:45;2.63;;;1.55;;
78858;SDS011;68210;52.032;4.634;2023-07-29T12:06:47;3.83;;;2.08;;
78858;SDS011;68210;52.032;4.634;2023-07-29T12:08:47;3.00;;;1.92;;
78858;SDS011;68210;52.032;4.634;2023-07-29T12:10:48;2.28;;;1.52;;
78858;SDS011;68210;52.032;4.634;2023-07-29T12:12:49;2.33;;;1.55;;
78858;SDS011;68210;52.032;4.634;2023-07-29T12:14:50;4.15;;;1.63;;
78858;SDS011;68210;52.032;4.634;2023-07-29T12:16:50;2.50;;;1.60;;
78858;SDS011;68210;52.032;4.634;2023-07-29T12:18:51;3.63;;;2.03;;
78858;SDS011;68210;52.032;4.634;2023-07-29T12:20:52;4.65;;;1.73;;
78858;SDS011;68210;52.032;4.634;2023-07-29T12:22:53;4.70;;;1.45;;
78858;SDS011;68210;52.032;4.634;2023-07-29T12:24:54;2.97;;;1.40;;
78858;SDS011;68210;52.032;4.634;2023-07-29T12:26:55;4.13;;;1.45;;
78858;SDS011;68210;52.032;4.634;2023-07-29T12:28:55;4.00;;;1.90;;
78858;SDS011;68210;52.032;4.634;2023-07-29T12:30:58;1.60;;;1.20;;
78858;SDS011;68210;52.032;4.634;2023-07-29T12:32:59;4.22;;;1.88;;